Asian Pride — 9V3662 — position and weather

sailwx.info

Track history (hours):
 
Tides and Currents Weather Stations Pressure Air Temp Water Temp Dewpoint Dewpoint Depression Visibility Wind Speed Wind Dir Waves Ship Positions

Asian Pride

Last reported at 2018-Jun-20 22:14 UTC. Time now 2018-Jun-21 23:59 UTC.
Position N 37°24' E 025°55'.

Length 200 m; draft 13.7 m.

Type: Cargo ship. MMSI: 563025500.

Date/timePositionNaut miles runAvg speedWind from/ knotsBaromVisibWave heightAir tempDewpointWater temp
2018-Jun-20 22:14N 37°24' E 025°55'312.6
2018-Jun-20 22:00N 37°27' E 025°54'612.9
2018-Jun-20 21:30N 37°34' E 025°53'  
2018-Jun-16 14:47N 41°26' E 029°07'0 0.6
2018-Jun-16 14:30N 41°26' E 029°07'1 1.5
2018-Jun-16 14:00N 41°26' E 029°08'8413.0
2018-Jun-16 07:33N 42°46' E 029°42'113.5
2018-Jun-16 07:30N 42°47' E 029°43'713.4
2018-Jun-16 07:00N 42°53' E 029°45'713.2
2018-Jun-16 06:30N 42°60' E 029°48'1013.2
2018-Jun-16 05:43N 43°09' E 029°52'313.3
2018-Jun-16 05:29N 43°12' E 029°53'613.5
2018-Jun-16 05:01N 43°19' E 029°56'713.6
2018-Jun-16 04:30N 43°25' E 029°58'713.5
2018-Jun-16 04:01N 43°32' E 030°00'713.5
2018-Jun-16 03:31N 43°38' E 030°03'713.3
2018-Jun-16 03:01N 43°45' E 030°06'713.1
2018-Jun-16 02:30N 43°51' E 030°08'612.7
2018-Jun-16 02:00N 43°57' E 030°11'612.6
2018-Jun-16 01:30N 44°03' E 030°14'612.7
2018-Jun-16 01:01N 44°09' E 030°16'612.8
2018-Jun-16 00:31N 44°15' E 030°19'612.8
2018-Jun-16 00:01N 44°21' E 030°21'612.6
2018-Jun-15 23:30N 44°27' E 030°24'612.5
2018-Jun-15 23:00N 44°33' E 030°26'612.5
2018-Jun-15 22:30N 44°39' E 030°29'612.6
2018-Jun-15 22:00N 44°46' E 030°31'712.8
2018-Jun-15 21:30N 44°52' E 030°33'511.1
2018-Jun-15 21:01N 44°57' E 030°36'612.9
2018-Jun-15 20:31N 45°03' E 030°38'713.0
2018-Jun-15 19:59N 45°10' E 030°41'612.9
2018-Jun-15 19:31N 45°15' E 030°44'612.9
2018-Jun-15 19:01N 45°22' E 030°47'612.8
2018-Jun-15 18:30N 45°28' E 030°49'612.7
2018-Jun-15 18:00N 45°34' E 030°51'612.7
2018-Jun-15 17:30N 45°40' E 030°54'612.8
2018-Jun-15 17:01N 45°46' E 030°56'612.6
2018-Jun-15 16:30N 45°52' E 030°59'2211.2
2018-Jun-15 14:32N 46°14' E 030°56'210.7
2018-Jun-15 14:19N 46°16' E 030°54'412.3
2018-Jun-15 13:58N 46°20' E 030°55'612.6
2018-Jun-15 13:29N 46°27' E 030°55'511.4
2018-Jun-15 13:01N 46°32' E 030°55'7 0.8
2018-Jun-15 04:19N 46°37' E 031°02'0 0.0
2018-Jun-15 03:31N 46°37' E 031°02'0 0.1
2018-Jun-15 03:28N 46°37' E 031°02'0 0.0
2018-Jun-15 01:34N 46°37' E 031°02'0 0.0
2018-Jun-15 01:22N 46°37' E 031°02'0 0.0
2018-Jun-15 00:55N 46°37' E 031°02'0 0.0
2018-Jun-14 13:52N 46°37' E 031°02'0 0.0
2018-Jun-14 13:28N 46°37' E 031°02'0 0.0
2018-Jun-14 08:16N 46°37' E 031°02'0 0.0
2018-Jun-14 07:55N 46°37' E 031°02'0 0.0
2018-Jun-14 07:28N 46°37' E 031°02'0 0.0
2018-Jun-14 06:40N 46°37' E 031°02'0 0.0
2018-Jun-14 06:28N 46°37' E 031°02'0 0.0
2018-Jun-14 04:49N 46°37' E 031°02'0 0.0
2018-Jun-14 04:25N 46°37' E 031°02'0 0.0
2018-Jun-14 03:58N 46°37' E 031°02'0 0.0
2018-Jun-14 03:28N 46°37' E 031°02'0 0.0
2018-Jun-14 02:58N 46°37' E 031°02'0 0.0
2018-Jun-14 02:28N 46°37' E 031°02'0 0.0
2018-Jun-14 01:55N 46°37' E 031°02'0 0.0
2018-Jun-14 01:28N 46°37' E 031°02'0 0.0
2018-Jun-14 00:31N 46°37' E 031°02'0 0.0
2018-Jun-14 00:28N 46°37' E 031°02'0 0.0
2018-Jun-13 23:49N 46°37' E 031°02'0 0.0
2018-Jun-13 23:28N 46°37' E 031°02'0 0.0
2018-Jun-13 22:58N 46°37' E 031°02'0 0.0
2018-Jun-13 22:25N 46°37' E 031°02'0 0.0
2018-Jun-13 21:58N 46°37' E 031°02'0 0.0
2018-Jun-13 21:28N 46°37' E 031°02'0 0.0
2018-Jun-13 20:52N 46°37' E 031°02'0 0.0
2018-Jun-13 20:28N 46°37' E 031°02'0 0.0
2018-Jun-13 19:55N 46°37' E 031°02'0 0.0
2018-Jun-13 19:28N 46°37' E 031°02'0 0.0
2018-Jun-13 18:55N 46°37' E 031°02'0 0.0
2018-Jun-13 18:25N 46°37' E 031°02'0 0.0
2018-Jun-13 17:58N 46°37' E 031°02'0 0.0
2018-Jun-13 17:28N 46°37' E 031°02'0 0.0
2018-Jun-13 16:40N 46°37' E 031°02'0 0.0
2018-Jun-13 16:22N 46°37' E 031°02'0 0.0
2018-Jun-13 15:58N 46°37' E 031°02'0 0.0
2018-Jun-13 04:55N 46°37' E 031°02'0 0.0
2018-Jun-13 04:25N 46°37' E 031°02'0 0.0
2018-Jun-13 03:55N 46°37' E 031°02'0 0.0
2018-Jun-13 03:25N 46°37' E 031°02'0 0.0
2018-Jun-13 02:52N 46°37' E 031°02'0 0.0
2018-Jun-13 02:25N 46°37' E 031°02'0 0.0
2018-Jun-13 01:55N 46°37' E 031°02'0 0.0
2018-Jun-13 01:22N 46°37' E 031°02'0 0.0
2018-Jun-13 00:58N 46°37' E 031°02'0 0.0
2018-Jun-13 00:25N 46°37' E 031°02'0 0.0
2018-Jun-12 23:58N 46°37' E 031°02'0 0.0
2018-Jun-12 23:25N 46°37' E 031°02'0 0.0
2018-Jun-12 22:58N 46°37' E 031°02'0 0.0
2018-Jun-12 22:25N 46°37' E 031°02'0 0.0
2018-Jun-12 21:58N 46°37' E 031°02'0 0.0
2018-Jun-12 21:25N 46°37' E 031°02'0 0.0
2018-Jun-12 20:55N 46°37' E 031°02'0 0.0
2018-Jun-12 20:25N 46°37' E 031°02'0 0.0
2018-Jun-12 19:55N 46°37' E 031°02'0 0.0
2018-Jun-12 19:28N 46°37' E 031°02'0 0.0
2018-Jun-12 18:58N 46°37' E 031°02'0 0.0
2018-Jun-12 18:28N 46°37' E 031°02'0 0.0
2018-Jun-12 17:04N 46°37' E 031°02'0 0.0
2018-Jun-12 05:49N 46°37' E 031°02'0 0.0
2018-Jun-12 05:25N 46°37' E 031°02'0 0.0
2018-Jun-12 03:22N 46°37' E 031°02'0 0.0
2018-Jun-12 02:58N 46°37' E 031°02'0 0.0
2018-Jun-12 02:25N 46°37' E 031°02'0 0.0
2018-Jun-12 01:55N 46°37' E 031°02'0 0.0
2018-Jun-12 01:22N 46°37' E 031°02'0 0.0
2018-Jun-12 00:56N 46°37' E 031°02'0 0.0
2018-Jun-12 00:22N 46°37' E 031°02'0 0.0
2018-Jun-11 23:55N 46°37' E 031°02'0 0.0
2018-Jun-11 23:28N 46°37' E 031°02'0 0.0
2018-Jun-11 22:58N 46°37' E 031°02'0 0.0
2018-Jun-11 22:25N 46°37' E 031°02'0 0.0
2018-Jun-11 21:58N 46°37' E 031°02'0 0.0
2018-Jun-11 21:25N 46°37' E 031°02'0 0.0
2018-Jun-11 20:58N 46°37' E 031°02'0 0.0
2018-Jun-11 20:28N 46°37' E 031°02'0 0.0
2018-Jun-11 19:58N 46°37' E 031°02'0 0.0
2018-Jun-11 19:28N 46°37' E 031°02'0 0.0
2018-Jun-11 18:58N 46°37' E 031°02'0 0.0
2018-Jun-11 18:28N 46°37' E 031°02'0 0.0
2018-Jun-11 17:58N 46°37' E 031°02'0 0.0
2018-Jun-11 17:25N 46°37' E 031°02'0 0.0
2018-Jun-11 16:58N 46°37' E 031°02'0 0.0
2018-Jun-11 16:28N 46°37' E 031°02'0 0.0
2018-Jun-11 14:22N 46°37' E 031°02'0 0.0
2018-Jun-11 13:13N 46°37' E 031°02'  
Track history (hours):
 
Tides and Currents Weather Stations Pressure Air Temp Water Temp Dewpoint Dewpoint Depression Visibility Wind Speed Wind Dir Waves Ship Positions

Asian Pride

Last reported at 2018-Jun-20 22:14 UTC. Time now 2018-Jun-21 23:59 UTC.
Position N 37°24' E 025°55'.

Length 200 m; draft 13.7 m.

Type: Cargo ship. MMSI: 563025500.

Date/timePositionNaut miles runAvg speedWind from/ knotsBaromVisibWave heightAir tempDewpointWater temp
2018-Jun-20 22:14N 37°24' E 025°55'312.6
2018-Jun-20 22:00N 37°27' E 025°54'612.9
2018-Jun-20 21:30N 37°34' E 025°53'  
2018-Jun-16 14:47N 41°26' E 029°07'0 0.6
2018-Jun-16 14:30N 41°26' E 029°07'1 1.5
2018-Jun-16 14:00N 41°26' E 029°08'8413.0
2018-Jun-16 07:33N 42°46' E 029°42'113.5
2018-Jun-16 07:30N 42°47' E 029°43'713.4
2018-Jun-16 07:00N 42°53' E 029°45'713.2
2018-Jun-16 06:30N 42°60' E 029°48'1013.2
2018-Jun-16 05:43N 43°09' E 029°52'313.3
2018-Jun-16 05:29N 43°12' E 029°53'613.5
2018-Jun-16 05:01N 43°19' E 029°56'713.6
2018-Jun-16 04:30N 43°25' E 029°58'713.5
2018-Jun-16 04:01N 43°32' E 030°00'713.5
2018-Jun-16 03:31N 43°38' E 030°03'713.3
2018-Jun-16 03:01N 43°45' E 030°06'713.1
2018-Jun-16 02:30N 43°51' E 030°08'612.7
2018-Jun-16 02:00N 43°57' E 030°11'612.6
2018-Jun-16 01:30N 44°03' E 030°14'612.7
2018-Jun-16 01:01N 44°09' E 030°16'612.8
2018-Jun-16 00:31N 44°15' E 030°19'612.8
2018-Jun-16 00:01N 44°21' E 030°21'612.6
2018-Jun-15 23:30N 44°27' E 030°24'612.5
2018-Jun-15 23:00N 44°33' E 030°26'612.5
2018-Jun-15 22:30N 44°39' E 030°29'612.6
2018-Jun-15 22:00N 44°46' E 030°31'712.8
2018-Jun-15 21:30N 44°52' E 030°33'511.1
2018-Jun-15 21:01N 44°57' E 030°36'612.9
2018-Jun-15 20:31N 45°03' E 030°38'713.0
2018-Jun-15 19:59N 45°10' E 030°41'612.9
2018-Jun-15 19:31N 45°15' E 030°44'612.9
2018-Jun-15 19:01N 45°22' E 030°47'612.8
2018-Jun-15 18:30N 45°28' E 030°49'612.7
2018-Jun-15 18:00N 45°34' E 030°51'612.7
2018-Jun-15 17:30N 45°40' E 030°54'612.8
2018-Jun-15 17:01N 45°46' E 030°56'612.6
2018-Jun-15 16:30N 45°52' E 030°59'2211.2
2018-Jun-15 14:32N 46°14' E 030°56'210.7
2018-Jun-15 14:19N 46°16' E 030°54'412.3
2018-Jun-15 13:58N 46°20' E 030°55'612.6
2018-Jun-15 13:29N 46°27' E 030°55'511.4
2018-Jun-15 13:01N 46°32' E 030°55'7 0.8
2018-Jun-15 04:19N 46°37' E 031°02'0 0.0
2018-Jun-15 03:31N 46°37' E 031°02'0 0.1
2018-Jun-15 03:28N 46°37' E 031°02'0 0.0
2018-Jun-15 01:34N 46°37' E 031°02'0 0.0
2018-Jun-15 01:22N 46°37' E 031°02'0 0.0
2018-Jun-15 00:55N 46°37' E 031°02'0 0.0
2018-Jun-14 13:52N 46°37' E 031°02'0 0.0
2018-Jun-14 13:28N 46°37' E 031°02'0 0.0
2018-Jun-14 08:16N 46°37' E 031°02'0 0.0
2018-Jun-14 07:55N 46°37' E 031°02'0 0.0
2018-Jun-14 07:28N 46°37' E 031°02'0 0.0
2018-Jun-14 06:40N 46°37' E 031°02'0 0.0
2018-Jun-14 06:28N 46°37' E 031°02'0 0.0
2018-Jun-14 04:49N 46°37' E 031°02'0 0.0
2018-Jun-14 04:25N 46°37' E 031°02'0 0.0
2018-Jun-14 03:58N 46°37' E 031°02'0 0.0
2018-Jun-14 03:28N 46°37' E 031°02'0 0.0
2018-Jun-14 02:58N 46°37' E 031°02'0 0.0
2018-Jun-14 02:28N 46°37' E 031°02'0 0.0
2018-Jun-14 01:55N 46°37' E 031°02'0 0.0
2018-Jun-14 01:28N 46°37' E 031°02'0 0.0
2018-Jun-14 00:31N 46°37' E 031°02'0 0.0
2018-Jun-14 00:28N 46°37' E 031°02'0 0.0
2018-Jun-13 23:49N 46°37' E 031°02'0 0.0
2018-Jun-13 23:28N 46°37' E 031°02'0 0.0
2018-Jun-13 22:58N 46°37' E 031°02'0 0.0
2018-Jun-13 22:25N 46°37' E 031°02'0 0.0
2018-Jun-13 21:58N 46°37' E 031°02'0 0.0
2018-Jun-13 21:28N 46°37' E 031°02'0 0.0
2018-Jun-13 20:52N 46°37' E 031°02'0 0.0
2018-Jun-13 20:28N 46°37' E 031°02'0 0.0
2018-Jun-13 19:55N 46°37' E 031°02'0 0.0
2018-Jun-13 19:28N 46°37' E 031°02'0 0.0
2018-Jun-13 18:55N 46°37' E 031°02'0 0.0
2018-Jun-13 18:25N 46°37' E 031°02'0 0.0
2018-Jun-13 17:58N 46°37' E 031°02'0 0.0
2018-Jun-13 17:28N 46°37' E 031°02'0 0.0
2018-Jun-13 16:40N 46°37' E 031°02'0 0.0
2018-Jun-13 16:22N 46°37' E 031°02'0 0.0
2018-Jun-13 15:58N 46°37' E 031°02'0 0.0
2018-Jun-13 04:55N 46°37' E 031°02'0 0.0
2018-Jun-13 04:25N 46°37' E 031°02'0 0.0
2018-Jun-13 03:55N 46°37' E 031°02'0 0.0
2018-Jun-13 03:25N 46°37' E 031°02'0 0.0
2018-Jun-13 02:52N 46°37' E 031°02'0 0.0
2018-Jun-13 02:25N 46°37' E 031°02'0 0.0
2018-Jun-13 01:55N 46°37' E 031°02'0 0.0
2018-Jun-13 01:22N 46°37' E 031°02'0 0.0
2018-Jun-13 00:58N 46°37' E 031°02'0 0.0
2018-Jun-13 00:25N 46°37' E 031°02'0 0.0
2018-Jun-12 23:58N 46°37' E 031°02'0 0.0
2018-Jun-12 23:25N 46°37' E 031°02'0 0.0
2018-Jun-12 22:58N 46°37' E 031°02'0 0.0
2018-Jun-12 22:25N 46°37' E 031°02'0 0.0
2018-Jun-12 21:58N 46°37' E 031°02'0 0.0
2018-Jun-12 21:25N 46°37' E 031°02'0 0.0
2018-Jun-12 20:55N 46°37' E 031°02'0 0.0
2018-Jun-12 20:25N 46°37' E 031°02'0 0.0
2018-Jun-12 19:55N 46°37' E 031°02'0 0.0
2018-Jun-12 19:28N 46°37' E 031°02'0 0.0
2018-Jun-12 18:58N 46°37' E 031°02'0 0.0
2018-Jun-12 18:28N 46°37' E 031°02'0 0.0
2018-Jun-12 17:04N 46°37' E 031°02'0 0.0
2018-Jun-12 05:49N 46°37' E 031°02'0 0.0
2018-Jun-12 05:25N 46°37' E 031°02'0 0.0
2018-Jun-12 03:22N 46°37' E 031°02'0 0.0
2018-Jun-12 02:58N 46°37' E 031°02'0 0.0
2018-Jun-12 02:25N 46°37' E 031°02'0 0.0
2018-Jun-12 01:55N 46°37' E 031°02'0 0.0
2018-Jun-12 01:22N 46°37' E 031°02'0 0.0
2018-Jun-12 00:56N 46°37' E 031°02'0 0.0
2018-Jun-12 00:22N 46°37' E 031°02'0 0.0
2018-Jun-11 23:55N 46°37' E 031°02'0 0.0
2018-Jun-11 23:28N 46°37' E 031°02'0 0.0
2018-Jun-11 22:58N 46°37' E 031°02'0 0.0
2018-Jun-11 22:25N 46°37' E 031°02'0 0.0
2018-Jun-11 21:58N 46°37' E 031°02'0 0.0
2018-Jun-11 21:25N 46°37' E 031°02'0 0.0
2018-Jun-11 20:58N 46°37' E 031°02'0 0.0
2018-Jun-11 20:28N 46°37' E 031°02'0 0.0
2018-Jun-11 19:58N 46°37' E 031°02'0 0.0
2018-Jun-11 19:28N 46°37' E 031°02'0 0.0
2018-Jun-11 18:58N 46°37' E 031°02'0 0.0
2018-Jun-11 18:28N 46°37' E 031°02'0 0.0
2018-Jun-11 17:58N 46°37' E 031°02'0 0.0
2018-Jun-11 17:25N 46°37' E 031°02'0 0.0
2018-Jun-11 16:58N 46°37' E 031°02'0 0.0
2018-Jun-11 16:28N 46°37' E 031°02'0 0.0
2018-Jun-11 14:22N 46°37' E 031°02'0 0.0
2018-Jun-11 13:13N 46°37' E 031°02'  

Dump ship's entire track history